createdAt,value
2023-04-18T00:01:08.112Z,10.37
2023-04-18T00:03:36.539Z,14.27
2023-04-18T00:06:03.605Z,10.77
2023-04-18T00:08:30.073Z,9.87
2023-04-18T00:10:57.396Z,12.23
2023-04-18T00:13:23.743Z,7.97
2023-04-18T00:15:50.269Z,10.27
2023-04-18T00:18:17.232Z,8.63
2023-04-18T00:20:43.815Z,9.03
2023-04-18T00:23:13.927Z,12.03
2023-04-18T00:25:40.776Z,8.73
2023-04-18T00:28:07.088Z,12.40
2023-04-18T00:30:33.722Z,8.77
2023-04-18T00:33:00.283Z,9.77
2023-04-18T00:35:26.760Z,11.83
2023-04-18T00:37:53.369Z,9.40
2023-04-18T00:40:19.818Z,12.57
2023-04-18T00:42:46.158Z,12.00
2023-04-18T00:45:12.583Z,7.57
2023-04-18T00:47:39.058Z,8.03
2023-04-18T00:50:06.034Z,12.77
2023-04-18T00:52:35.822Z,11.23
2023-04-18T00:55:06.554Z,9.93
2023-04-18T00:57:33.566Z,9.30
2023-04-18T01:00:01.193Z,10.00
2023-04-18T01:02:30.569Z,10.37
2023-04-18T01:04:58.645Z,9.87
2023-04-18T01:07:26.531Z,8.30
2023-04-18T01:09:53.874Z,9.20
2023-04-18T01:12:20.293Z,12.67
2023-04-18T01:14:46.659Z,9.03
2023-04-18T01:17:13.344Z,8.90
2023-04-18T01:19:40.434Z,9.03
2023-04-18T01:22:07.044Z,11.73
2023-04-18T01:24:34.009Z,9.63
2023-04-18T01:27:02.869Z,8.20
2023-04-18T01:29:29.250Z,9.83
2023-04-18T01:31:55.901Z,7.93
2023-04-18T01:34:22.324Z,8.77
2023-04-18T01:36:49.006Z,8.07
2023-04-18T01:39:15.532Z,11.07
2023-04-18T01:41:42.087Z,11.70
2023-04-18T01:44:08.550Z,9.30
2023-04-18T01:46:36.137Z,11.00
2023-04-18T01:49:03.717Z,10.20
2023-04-18T01:51:31.231Z,10.60
2023-04-18T01:53:57.700Z,8.37
2023-04-18T01:56:24.040Z,10.67
2023-04-18T01:58:50.452Z,10.23
2023-04-18T02:01:16.982Z,7.80
2023-04-18T02:03:43.580Z,8.33
2023-04-18T02:06:10.259Z,7.40
2023-04-18T02:08:36.771Z,8.70
2023-04-18T02:11:03.515Z,9.80
2023-04-18T02:13:29.861Z,8.97
2023-04-18T02:15:56.349Z,10.50
2023-04-18T02:18:24.709Z,10.43
2023-04-18T02:20:51.958Z,9.33
2023-04-18T02:23:18.911Z,14.60
2023-04-18T02:25:45.302Z,9.27
2023-04-18T02:28:11.682Z,8.90
2023-04-18T02:30:38.105Z,9.20
2023-04-18T02:33:04.526Z,8.90
2023-04-18T02:35:31.676Z,14.60
2023-04-18T02:37:58.300Z,9.40
2023-04-18T02:40:24.725Z,8.33
2023-04-18T02:42:51.167Z,10.17
2023-04-18T02:45:17.832Z,12.07
2023-04-18T02:47:54.720Z,14.50
2023-04-18T02:50:22.963Z,9.27
2023-04-18T02:52:49.329Z,10.30
2023-04-18T02:55:16.131Z,13.43
2023-04-18T02:57:42.635Z,9.17
2023-04-18T03:00:09.456Z,9.57
2023-04-18T03:02:35.993Z,11.10
2023-04-18T03:05:02.802Z,10.53
2023-04-18T03:07:30.694Z,11.97
2023-04-18T03:09:57.116Z,9.87
2023-04-18T03:12:23.496Z,9.97
2023-04-18T03:14:49.929Z,8.90
2023-04-18T03:17:16.382Z,11.27
2023-04-18T03:19:42.795Z,9.93
2023-04-18T03:22:09.900Z,10.47
2023-04-18T03:24:36.213Z,11.97
2023-04-18T03:27:02.619Z,9.30
2023-04-18T03:29:29.057Z,12.27
2023-04-18T03:31:55.356Z,10.23
2023-04-18T03:34:21.862Z,9.40
2023-04-18T03:36:48.382Z,12.53
2023-04-18T03:39:14.987Z,9.30
2023-04-18T03:41:41.565Z,22.70
2023-04-18T03:44:08.849Z,9.43
2023-04-18T03:46:35.573Z,12.43
2023-04-18T03:49:02.244Z,10.60
2023-04-18T03:51:33.799Z,9.70
2023-04-18T03:54:00.248Z,9.77
2023-04-18T03:56:26.954Z,11.40
2023-04-18T03:58:53.355Z,15.93
2023-04-18T04:01:19.723Z,11.33
2023-04-18T04:03:46.483Z,10.40
2023-04-18T04:06:13.091Z,8.80
2023-04-18T04:08:39.445Z,11.33
2023-04-18T04:11:05.909Z,11.37
2023-04-18T04:13:32.248Z,10.43
2023-04-18T04:15:58.646Z,11.13
2023-04-18T04:18:31.022Z,9.37
2023-04-18T04:20:59.123Z,9.50
2023-04-18T04:23:26.772Z,9.97
2023-04-18T04:25:54.313Z,10.77
2023-04-18T04:28:23.720Z,15.63
2023-04-18T04:30:50.827Z,11.13
2023-04-18T04:33:19.465Z,10.53
2023-04-18T04:35:49.714Z,11.30
2023-04-18T04:38:16.913Z,9.77
2023-04-18T04:40:43.418Z,9.37
2023-04-18T04:43:16.420Z,10.00
2023-04-18T04:45:51.485Z,11.47
2023-04-18T04:48:19.806Z,9.63
2023-04-18T04:50:57.947Z,10.43
2023-04-18T04:53:26.216Z,11.40
2023-04-18T04:55:52.612Z,10.77
2023-04-18T04:58:19.930Z,9.40
2023-04-18T05:00:46.482Z,10.87
2023-04-18T05:03:13.043Z,11.67
2023-04-18T05:05:39.689Z,11.40
2023-04-18T05:08:06.238Z,10.20
2023-04-18T05:10:33.095Z,11.00
2023-04-18T05:12:59.514Z,15.40
2023-04-18T05:15:25.895Z,12.17
2023-04-18T05:17:52.248Z,12.07
2023-04-18T05:20:18.698Z,10.63
2023-04-18T05:22:45.083Z,11.80
2023-04-18T05:25:12.474Z,13.07
2023-04-18T05:27:39.390Z,11.37
2023-04-18T05:30:06.488Z,11.50
2023-04-18T05:32:32.886Z,14.90
2023-04-18T05:35:00.452Z,11.73
2023-04-18T05:37:26.806Z,10.77
2023-04-18T05:39:53.186Z,13.27
2023-04-18T05:42:19.686Z,13.53
2023-04-18T05:44:46.038Z,12.37
2023-04-18T05:47:12.428Z,10.90
2023-04-18T05:49:38.852Z,11.80
2023-04-18T05:52:05.448Z,12.47
2023-04-18T05:54:31.771Z,13.40
2023-04-18T05:56:58.416Z,10.70
2023-04-18T05:59:26.749Z,12.83
2023-04-18T06:01:53.425Z,11.97
2023-04-18T06:04:21.145Z,12.43
2023-04-18T06:06:47.863Z,11.93
2023-04-18T06:09:14.280Z,13.00
2023-04-18T06:11:40.736Z,11.00
2023-04-18T06:14:07.714Z,9.53
2023-04-18T06:16:35.903Z,10.03
2023-04-18T06:19:03.120Z,11.70
2023-04-18T06:21:29.637Z,10.53
2023-04-18T06:23:55.989Z,9.70
2023-04-18T06:26:22.449Z,10.93
2023-04-18T06:28:48.834Z,11.83
2023-04-18T06:31:15.206Z,12.87
2023-04-18T06:33:41.857Z,9.70
2023-04-18T06:36:08.850Z,12.13
2023-04-18T06:38:35.328Z,9.70
2023-04-18T06:41:01.812Z,9.87
2023-04-18T06:43:28.214Z,10.47
2023-04-18T06:45:55.694Z,8.30
2023-04-18T06:48:22.644Z,10.20
2023-04-18T06:50:48.979Z,10.27
2023-04-18T06:53:15.389Z,9.13
2023-04-18T06:55:41.922Z,10.00
2023-04-18T06:58:09.936Z,8.80
2023-04-18T07:00:36.404Z,8.17
2023-04-18T07:03:11.473Z,8.47
2023-04-18T07:05:38.888Z,8.67
2023-04-18T07:08:05.374Z,10.20
2023-04-18T07:10:32.171Z,7.73
2023-04-18T07:12:58.569Z,9.93
2023-04-18T07:15:24.975Z,9.63
2023-04-18T07:17:51.542Z,8.33
2023-04-18T07:20:17.938Z,10.83
2023-04-18T07:22:44.376Z,8.20
2023-04-18T07:25:10.870Z,8.07
2023-04-18T07:27:37.537Z,7.77
2023-04-18T07:30:04.842Z,7.80
2023-04-18T07:32:31.443Z,9.47
2023-04-18T07:34:57.843Z,9.13
2023-04-18T07:37:24.629Z,8.40
2023-04-18T07:39:51.436Z,7.80
2023-04-18T07:42:17.953Z,8.37
2023-04-18T07:44:44.639Z,7.30
2023-04-18T07:47:11.085Z,8.60
2023-04-18T07:49:38.208Z,8.97
2023-04-18T07:52:04.914Z,7.60
2023-04-18T07:54:31.323Z,7.07
2023-04-18T07:56:59.757Z,7.60
2023-04-18T07:59:26.292Z,7.40
2023-04-18T08:01:52.886Z,8.03
2023-04-18T08:04:19.381Z,7.07
2023-04-18T08:06:45.960Z,6.77
2023-04-18T08:09:12.496Z,7.63
2023-04-18T08:11:39.223Z,7.23
2023-04-18T08:14:05.760Z,7.07
2023-04-18T08:16:32.253Z,7.30
2023-04-18T08:18:58.620Z,6.23
2023-04-18T08:21:26.687Z,6.00
2023-04-18T08:23:53.275Z,6.50
2023-04-18T08:26:19.789Z,6.73
2023-04-18T08:28:46.650Z,6.87
2023-04-18T08:31:14.573Z,6.77
2023-04-18T08:33:41.628Z,7.30
2023-04-18T08:36:08.217Z,8.27
2023-04-18T08:38:34.751Z,10.40
2023-04-18T08:41:01.282Z,7.43
2023-04-18T08:43:30.048Z,5.77
2023-04-18T08:45:59.514Z,6.27
2023-04-18T08:48:28.246Z,7.80
2023-04-18T08:50:58.694Z,6.20
2023-04-18T08:53:26.746Z,6.00
2023-04-18T08:55:57.053Z,6.13
2023-04-18T08:58:24.392Z,7.73
2023-04-18T09:00:52.309Z,6.23
2023-04-18T09:03:39.619Z,6.67
2023-04-18T09:06:19.448Z,5.53
2023-04-18T09:08:59.032Z,6.57
2023-04-18T09:11:28.798Z,5.57
2023-04-18T09:13:58.843Z,5.60
2023-04-18T09:16:27.472Z,6.17
2023-04-18T09:19:11.074Z,6.17
2023-04-18T09:21:46.200Z,5.53
2023-04-18T09:24:21.136Z,7.17
2023-04-18T09:26:49.715Z,5.83
2023-04-18T09:29:18.423Z,6.37
2023-04-18T09:31:56.055Z,4.83
2023-04-18T09:34:26.264Z,6.47
2023-04-18T09:37:07.776Z,5.57
2023-04-18T09:39:34.446Z,5.17
2023-04-18T09:42:01.312Z,5.87
2023-04-18T09:44:27.953Z,5.43
2023-04-18T09:46:54.380Z,5.53
2023-04-18T09:49:20.856Z,5.57
2023-04-18T09:51:50.402Z,5.27
2023-04-18T09:54:18.296Z,5.63
2023-04-18T09:56:45.797Z,5.53
2023-04-18T09:59:14.923Z,5.20
2023-04-18T10:01:41.701Z,5.40
2023-04-18T10:04:10.022Z,5.23
2023-04-18T10:06:39.804Z,4.87
2023-04-18T10:09:08.895Z,6.00
2023-04-18T10:11:36.034Z,5.60
2023-04-18T10:14:06.915Z,9.10
2023-04-18T10:16:34.981Z,4.67
2023-04-18T10:19:26.104Z,5.47
2023-04-18T10:21:57.251Z,5.63
2023-04-18T10:24:45.851Z,5.87
2023-04-18T10:27:12.194Z,5.67
2023-04-18T10:29:49.475Z,5.83
2023-04-18T10:32:17.713Z,7.80
2023-04-18T10:34:45.964Z,5.50
2023-04-18T10:37:13.053Z,5.67
2023-04-18T10:39:56.596Z,6.43
2023-04-18T10:42:48.199Z,5.57
2023-04-18T10:45:22.728Z,5.20
2023-04-18T10:47:49.785Z,5.37
2023-04-18T10:50:17.282Z,6.17
2023-04-18T10:52:43.799Z,4.90
2023-04-18T10:55:24.330Z,7.63
2023-04-18T10:57:51.452Z,5.30
2023-04-18T11:00:20.607Z,5.00
2023-04-18T11:02:52.541Z,5.77
2023-04-18T11:05:24.872Z,5.77
2023-04-18T11:07:51.419Z,12.93
2023-04-18T11:10:20.176Z,6.07
2023-04-18T11:12:47.077Z,6.73
2023-04-18T11:15:22.726Z,5.57
2023-04-18T11:17:58.223Z,6.27
2023-04-18T11:20:24.844Z,6.13
2023-04-18T11:22:55.245Z,6.20
2023-04-18T11:25:41.261Z,6.80
2023-04-18T11:28:07.684Z,7.77
2023-04-18T11:30:41.588Z,8.90
2023-04-18T11:33:12.644Z,5.77
2023-04-18T11:35:43.505Z,5.23
2023-04-18T11:38:12.854Z,5.60
2023-04-18T11:40:39.943Z,5.70
2023-04-18T11:43:07.266Z,5.50
2023-04-18T11:45:33.877Z,5.33
2023-04-18T11:48:01.015Z,4.97
2023-04-18T11:50:27.766Z,5.30
2023-04-18T11:52:55.331Z,5.53
2023-04-18T11:55:25.017Z,7.43
2023-04-18T11:57:56.945Z,5.07
2023-04-18T12:00:38.409Z,6.47
2023-04-18T12:03:15.796Z,5.20
2023-04-18T12:05:42.691Z,5.10
2023-04-18T12:08:13.847Z,5.17
2023-04-18T12:10:47.999Z,5.30
2023-04-18T12:13:14.671Z,5.43
2023-04-18T12:15:44.280Z,5.20
2023-04-18T12:18:12.450Z,5.07
2023-04-18T12:20:45.993Z,5.53
2023-04-18T12:23:35.817Z,5.80
2023-04-18T12:26:03.935Z,5.07
2023-04-18T12:28:31.643Z,5.30
2023-04-18T12:30:58.898Z,5.23
2023-04-18T12:33:25.506Z,5.20
2023-04-18T12:35:52.660Z,5.27
2023-04-18T12:38:23.373Z,5.20
2023-04-18T12:40:51.154Z,4.63
2023-04-18T12:43:18.398Z,4.67
2023-04-18T12:45:46.653Z,5.67
2023-04-18T12:48:13.374Z,4.93
2023-04-18T12:50:39.811Z,5.23
2023-04-18T12:53:06.641Z,5.07
2023-04-18T12:55:33.147Z,5.03
2023-04-18T12:57:59.597Z,5.47
2023-04-18T13:00:28.676Z,4.77
2023-04-18T13:02:55.299Z,4.60
2023-04-18T13:05:23.458Z,5.17
2023-04-18T13:07:58.710Z,5.37
2023-04-18T13:10:31.760Z,5.30
2023-04-18T13:12:58.258Z,5.40
2023-04-18T13:15:24.690Z,5.10
2023-04-18T13:17:51.126Z,5.43
2023-04-18T13:20:17.544Z,5.10
2023-04-18T13:22:45.014Z,5.10
2023-04-18T13:25:11.799Z,5.77
2023-04-18T13:27:41.790Z,6.10
2023-04-18T13:30:10.452Z,5.53
2023-04-18T13:32:37.552Z,5.30
2023-04-18T13:35:04.463Z,5.77
2023-04-18T13:37:31.190Z,6.33
2023-04-18T13:39:57.624Z,5.17
2023-04-18T13:42:23.989Z,5.23
2023-04-18T13:44:50.413Z,5.07
2023-04-18T13:47:16.797Z,4.90
2023-04-18T13:49:43.246Z,5.40
2023-04-18T13:52:09.621Z,5.30
2023-04-18T13:54:37.382Z,6.43
2023-04-18T13:57:03.952Z,6.00
2023-04-18T13:59:33.363Z,5.30
2023-04-18T14:01:59.932Z,5.70
2023-04-18T14:04:27.008Z,5.50
2023-04-18T14:06:53.513Z,6.03
2023-04-18T14:09:19.878Z,7.97
2023-04-18T14:11:46.522Z,5.60
2023-04-18T14:14:12.959Z,6.60
2023-04-18T14:16:39.470Z,7.10
2023-04-18T14:19:06.561Z,6.33
2023-04-18T14:21:32.933Z,5.83
2023-04-18T14:23:59.325Z,5.90
2023-04-18T14:26:25.822Z,6.20
2023-04-18T14:28:52.193Z,6.57
2023-04-18T14:31:18.706Z,6.00
2023-04-18T14:33:45.219Z,5.60
2023-04-18T14:36:11.759Z,5.87
2023-04-18T14:38:38.189Z,5.87
2023-04-18T14:41:05.690Z,6.17
2023-04-18T14:43:32.320Z,6.30
2023-04-18T14:45:59.670Z,6.60
2023-04-18T14:48:26.613Z,5.37
2023-04-18T14:51:00.034Z,5.50
2023-04-18T14:53:27.048Z,5.47
2023-04-18T14:55:53.510Z,5.80
2023-04-18T14:58:20.115Z,5.57
2023-04-18T15:00:46.526Z,5.40
2023-04-18T15:03:13.032Z,7.20
2023-04-18T15:05:43.018Z,6.03
2023-04-18T15:08:11.425Z,6.10
2023-04-18T15:10:38.470Z,5.47
2023-04-18T15:13:04.937Z,5.97
2023-04-18T15:15:34.811Z,6.10
2023-04-18T15:18:02.340Z,9.30
2023-04-18T15:20:31.832Z,6.33
2023-04-18T15:22:58.142Z,5.27
2023-04-18T15:25:26.061Z,5.87
2023-04-18T15:27:53.043Z,5.73
2023-04-18T15:30:19.693Z,7.50
2023-04-18T15:32:46.126Z,5.80
2023-04-18T15:35:12.954Z,6.10
2023-04-18T15:37:39.448Z,5.47
2023-04-18T15:40:09.159Z,5.80
2023-04-18T15:42:35.825Z,5.43
2023-04-18T15:45:04.058Z,5.47
2023-04-18T15:47:33.302Z,5.50
2023-04-18T15:50:00.410Z,6.10
2023-04-18T15:52:26.755Z,5.97
2023-04-18T15:54:54.368Z,5.37
2023-04-18T15:57:21.329Z,5.97
2023-04-18T15:59:47.707Z,5.33
2023-04-18T16:02:14.292Z,5.63
2023-04-18T16:04:40.836Z,5.10
2023-04-18T16:07:08.301Z,4.90
2023-04-18T16:09:34.815Z,5.60
2023-04-18T16:12:03.087Z,4.87
2023-04-18T16:14:30.539Z,5.07
2023-04-18T16:17:00.285Z,4.70
2023-04-18T16:19:26.703Z,5.30
2023-04-18T16:21:53.137Z,6.17
2023-04-18T16:24:19.570Z,5.07
2023-04-18T16:26:46.292Z,6.97
2023-04-18T16:29:12.674Z,4.83
2023-04-18T16:31:39.120Z,5.10
2023-04-18T16:34:05.487Z,4.97
2023-04-18T16:36:34.663Z,4.87
2023-04-18T16:39:01.054Z,4.97
2023-04-18T16:41:27.535Z,5.10
2023-04-18T16:43:54.050Z,5.10
2023-04-18T16:46:20.527Z,5.23
2023-04-18T16:48:46.950Z,4.60
2023-04-18T16:51:13.425Z,6.40
2023-04-18T16:53:39.925Z,4.57
2023-04-18T16:56:07.788Z,4.63
2023-04-18T16:58:34.398Z,4.70
2023-04-18T17:01:03.893Z,3.80
2023-04-18T17:03:30.507Z,4.97
2023-04-18T17:05:57.089Z,3.93
2023-04-18T17:08:25.721Z,4.13
2023-04-18T17:10:52.575Z,4.10
2023-04-18T17:13:19.552Z,5.50
2023-04-18T17:15:46.109Z,3.60
2023-04-18T17:18:12.542Z,3.90
2023-04-18T17:20:38.989Z,4.03
2023-04-18T17:23:05.325Z,4.00
2023-04-18T17:25:31.766Z,4.17
2023-04-18T17:27:58.261Z,3.80
2023-04-18T17:30:24.588Z,4.40
2023-04-18T17:32:51.088Z,4.03
2023-04-18T17:35:17.843Z,4.13
2023-04-18T17:37:44.196Z,4.20
2023-04-18T17:40:11.697Z,4.50
2023-04-18T17:42:38.328Z,4.50
2023-04-18T17:45:09.664Z,4.47
2023-04-18T17:47:36.672Z,4.50
2023-04-18T17:50:06.990Z,4.20
2023-04-18T17:52:33.477Z,4.50
2023-04-18T17:55:01.518Z,4.67
2023-04-18T17:57:30.175Z,5.17
2023-04-18T17:59:56.564Z,4.77
2023-04-18T18:02:28.136Z,4.93
2023-04-18T18:04:54.617Z,7.13
2023-04-18T18:07:21.163Z,4.67
2023-04-18T18:09:47.555Z,4.93
2023-04-18T18:12:14.054Z,5.63
2023-04-18T18:14:40.514Z,4.17
2023-04-18T18:17:07.042Z,4.40
2023-04-18T18:19:36.122Z,4.47
2023-04-18T18:22:02.638Z,6.07
2023-04-18T18:24:29.086Z,5.23
2023-04-18T18:26:56.302Z,4.77
2023-04-18T18:29:22.733Z,4.97
2023-04-18T18:31:49.250Z,4.57
2023-04-18T18:34:15.700Z,4.40
2023-04-18T18:36:42.205Z,6.40
2023-04-18T18:39:08.652Z,4.67
2023-04-18T18:41:35.033Z,4.53
2023-04-18T18:44:01.446Z,4.73
2023-04-18T18:46:27.974Z,4.40
2023-04-18T18:48:54.344Z,4.57
2023-04-18T18:51:20.716Z,4.40
2023-04-18T18:53:47.127Z,4.60
2023-04-18T18:56:13.512Z,4.40
2023-04-18T18:58:40.398Z,4.63
2023-04-18T19:01:06.810Z,5.00
2023-04-18T19:03:34.623Z,4.70
2023-04-18T19:06:03.776Z,7.43
2023-04-18T19:08:30.876Z,4.07
2023-04-18T19:10:57.189Z,4.73
2023-04-18T19:13:24.056Z,4.50
2023-04-18T19:15:51.088Z,5.33
2023-04-18T19:18:19.507Z,5.13
2023-04-18T19:20:46.345Z,4.40
2023-04-18T19:23:12.856Z,4.53
2023-04-18T19:25:39.198Z,4.90
2023-04-18T19:28:05.781Z,5.27
2023-04-18T19:30:32.636Z,5.10
2023-04-18T19:32:59.506Z,4.53
2023-04-18T19:35:25.958Z,4.20
2023-04-18T19:37:52.450Z,7.90
2023-04-18T19:40:19.589Z,4.47
2023-04-18T19:42:46.115Z,5.47
2023-04-18T19:45:13.757Z,5.00
2023-04-18T19:47:42.251Z,4.30
2023-04-18T19:50:08.936Z,4.60
2023-04-18T19:52:35.535Z,4.20
2023-04-18T19:55:02.014Z,5.00
2023-04-18T19:57:29.640Z,5.40
2023-04-18T19:59:56.533Z,4.20
2023-04-18T20:02:23.086Z,4.43
2023-04-18T20:04:49.577Z,4.40
2023-04-18T20:07:16.282Z,4.93
2023-04-18T20:09:42.636Z,4.73
2023-04-18T20:12:08.968Z,4.57
2023-04-18T20:14:35.596Z,4.40
2023-04-18T20:17:01.925Z,7.40
2023-04-18T20:19:29.672Z,4.37
2023-04-18T20:21:56.264Z,4.83
2023-04-18T20:24:23.815Z,5.80
2023-04-18T20:26:51.285Z,6.40
2023-04-18T20:29:17.811Z,6.33
2023-04-18T20:31:44.177Z,6.83
2023-04-18T20:34:10.941Z,6.90
2023-04-18T20:36:42.618Z,8.17
2023-04-18T20:39:09.071Z,7.57
2023-04-18T20:41:36.899Z,6.40
2023-04-18T20:44:06.561Z,6.40
2023-04-18T20:46:33.053Z,6.30
2023-04-18T20:49:00.693Z,6.57
2023-04-18T20:51:28.660Z,6.80
2023-04-18T20:53:55.183Z,6.40
2023-04-18T20:56:22.190Z,6.73
2023-04-18T20:58:48.540Z,7.23
2023-04-18T21:01:14.899Z,6.73
2023-04-18T21:03:41.588Z,5.90
2023-04-18T21:06:08.044Z,7.00
2023-04-18T21:08:39.204Z,6.43
2023-04-18T21:11:06.824Z,5.80
2023-04-18T21:13:34.144Z,5.97
2023-04-18T21:16:03.143Z,7.37
2023-04-18T21:18:30.435Z,5.97
2023-04-18T21:20:56.942Z,7.00
2023-04-18T21:23:24.039Z,5.80
2023-04-18T21:25:50.920Z,6.30
2023-04-18T21:28:19.037Z,7.00
2023-04-18T21:30:46.318Z,5.57
2023-04-18T21:33:13.642Z,5.90
2023-04-18T21:35:40.131Z,6.33
2023-04-18T21:38:06.484Z,6.33
2023-04-18T21:40:34.568Z,7.83
2023-04-18T21:43:01.155Z,7.20
2023-04-18T21:45:27.663Z,5.97
2023-04-18T21:47:54.239Z,6.70
2023-04-18T21:50:20.858Z,6.30
2023-04-18T21:52:47.231Z,5.80
2023-04-18T21:55:13.913Z,4.93
2023-04-18T21:57:40.455Z,6.13
2023-04-18T22:00:10.265Z,6.27
2023-04-18T22:02:37.082Z,6.00
2023-04-18T22:05:03.772Z,6.83
2023-04-18T22:07:30.970Z,5.57
2023-04-18T22:09:59.587Z,5.53
2023-04-18T22:12:26.485Z,5.70
2023-04-18T22:14:52.991Z,5.57
2023-04-18T22:17:20.816Z,5.60
2023-04-18T22:19:49.119Z,5.53
2023-04-18T22:22:15.530Z,5.10
2023-04-18T22:24:41.881Z,5.37
2023-04-18T22:27:08.344Z,5.80
2023-04-18T22:29:34.710Z,5.77
2023-04-18T22:32:01.086Z,5.40
2023-04-18T22:34:27.513Z,5.10
2023-04-18T22:36:53.848Z,5.50
2023-04-18T22:39:20.229Z,5.50
2023-04-18T22:41:46.694Z,6.77
2023-04-18T22:44:13.447Z,5.00
2023-04-18T22:46:40.885Z,5.80
2023-04-18T22:49:07.406Z,6.03
2023-04-18T22:51:34.114Z,5.40
2023-04-18T22:54:00.553Z,6.27
2023-04-18T22:56:26.922Z,5.33
2023-04-18T22:58:53.230Z,5.30
2023-04-18T23:01:19.630Z,5.63
2023-04-18T23:03:46.533Z,5.73
2023-04-18T23:06:13.070Z,5.50
2023-04-18T23:08:39.530Z,6.17
2023-04-18T23:11:05.965Z,5.70
2023-04-18T23:13:32.265Z,5.57
2023-04-18T23:15:58.844Z,5.23
2023-04-18T23:18:25.459Z,5.33
2023-04-18T23:20:51.940Z,5.13
2023-04-18T23:23:18.395Z,5.40
2023-04-18T23:25:44.876Z,5.20
2023-04-18T23:28:13.421Z,5.27
2023-04-18T23:30:39.963Z,5.00
2023-04-18T23:33:06.582Z,5.10
2023-04-18T23:35:33.020Z,5.40
2023-04-18T23:37:59.521Z,7.73
2023-04-18T23:40:25.883Z,5.17
2023-04-18T23:42:52.318Z,4.87
2023-04-18T23:45:18.820Z,5.13
2023-04-18T23:47:45.275Z,5.80
2023-04-18T23:50:12.010Z,5.40
2023-04-18T23:52:38.634Z,5.43
2023-04-18T23:55:05.441Z,4.93
2023-04-18T23:57:31.889Z,5.97
2023-04-18T23:59:58.320Z,5.10
